Terminal Aerodrome Forecast
Issued by NWS

Home | Current Version | Previous Version | Text Only | Print | Product List | Glossary On
Versions: 1 2 3 4 5 6 7 8 9 10 11 12 13 14 15 16 17 18 19
103
FTUS41 KBTV 071416 AAA
TAFMSS
TAF AMD
KMSS 071416Z 0714/0812 05010KT P6SM VCSH OVC040
      TEMPO 0714/0716 BKN020
     FM071600 06010KT P6SM OVC020
     FM072000 07010KT P6SM OVC030
     FM072300 07011KT P6SM OVC040=

USA.gov is the U.S. government's official web portal to all federal, state and local government web resources and services.